Valley Peak, Santa Cruz Island Reserve, California Weather observations

Data are for 10 minute period ending at time listed.
 Day   Time   Solar   Ave.   Ave.  Ave.  Vector  Max.   Baro.   Total    
  of    of     Rad.   Air    Rel.  Wind   Wind   Wind  Press.  Precip.   
Year   Day            Temp.  Hum.  Speed  Dir.   Gust                    
2016   (PST)  Kw/m2    F      %     mph   deg.    mph    mb.     in.     
-------------------------------------------------------------------------
 180   21:00   0.00   75.1    47    3.7   205     5.3   963.5    0.00 
 180   21:10   0.00   75.5    44    3.7   260     5.5   963.6    0.00 
 180   21:20   0.00   76.7    40    4.4   291     5.9   963.6    0.00 
 180   21:30   0.00   76.8    41    2.5   263     4.7   963.6    0.00 
 180   21:40   0.00   75.4    46    0.7   214     2.4   963.5    0.00 
 180   21:50   0.00   73.6    49    0.9    88     3.3   963.4    0.00 
 180   22:00   0.00   72.5    51    2.0     5     4.2   963.4    0.00 
 180   22:10   0.00   73.7    47    2.6   178     3.8   963.4    0.00 
 180   22:20   0.00   75.1    46    2.0   132     5.9   963.4    0.00 
 180   22:30   0.00   71.9    58    6.6   127     8.8   963.4    0.00 
 180   22:40   0.00   69.6    62    8.9   132    10.1   963.3    0.00 
 180   22:50   0.00   68.7    63    9.8   142    11.4   963.3    0.00 
 180   23:00   0.00   68.6    62    9.7   142    10.7   963.2    0.00 
 180   23:10   0.00   69.3    59    7.5   140     9.8   963.2    0.00 
 180   23:20   0.00   70.4    56    5.2   148     7.2   963.2    0.00 
 180   23:30   0.00   70.8    54    5.7   158     7.4   963.2    0.00 
 180   23:40   0.00   70.4    55    8.0   152     9.9   963.2    0.00 
 180   23:50   0.00   68.9    59    8.6   149     9.9   963.2    0.00 
 181    0:00   0.00   68.0    62   10.7   141    12.8   963.2    0.00 
 181    0:10   0.00   67.4    64    9.7   123    11.8   963.3    0.00 
 181    0:20   0.00   67.7    64    8.4   127    10.1   963.3    0.00 
 181    0:30   0.00   66.7    67    8.5   130     9.7   963.3    0.00 
 181    0:40   0.00   66.4    67    6.9   128     8.3   963.3    0.00 
 181    0:50   0.00   66.1    69    6.6   141     8.0   963.2    0.00 
 181    1:00   0.00   64.2    74    6.5   135     8.0   963.2    0.00 
 181    1:10   0.00   64.9    70    5.8   125     7.2   963.1    0.00 
 181    1:20   0.00   66.3    66    4.9   132     6.2   963.1    0.00 
 181    1:30   0.00   66.3    67    6.0   125     6.7   963.1    0.00 
 181    1:40   0.00   65.7    68    6.9   135     8.2   963.1    0.00 
 181    1:50   0.00   65.6    66    6.5   149     8.0   963.0    0.00 
 181    2:00   0.00   65.5    66    6.5   150     9.2   963.0    0.00 
 181    2:10   0.00   64.7    69    8.0   139     9.6   963.0    0.00 
 181    2:20   0.00   64.6    69    7.3   130     8.6   963.1    0.00 
 181    2:30   0.00   65.2    67    7.4   131     8.7   963.1    0.00 
 181    2:40   0.00   65.4    66    7.9   143     9.5   963.0    0.00 
 181    2:50   0.00   65.4    66    8.3   146     9.8   962.9    0.00 
 181    3:00   0.00   65.3    66    8.3   138     9.4   963.0    0.00 
 181    3:10   0.00   64.8    68    7.6   122     9.3   963.1    0.00 
 181    3:20   0.00   64.6    70    7.9   113     9.6   963.2    0.00 
 181    3:30   0.00   64.3    71    7.6   112     9.2   963.2    0.00 
 181    3:40   0.00   64.7    69    8.4   114    10.4   963.2    0.00 
 181    3:50   0.00   65.4    67    9.4   112    11.4   963.2    0.00 
 181    4:00   0.00   65.6    66    7.5   108     9.8   963.2    0.00 
 181    4:10   0.00   64.9    68    5.3    94     7.0   963.2    0.00 
 181    4:20   0.00   63.8    71    4.6    78     6.2   963.2    0.00 
 181    4:30   0.00   62.8    74    5.8    94     7.2   963.2    0.00 
 181    4:40   0.00   62.9    72    6.9   102     7.9   963.2    0.00 
 181    4:50   0.00   63.7    71    7.8   122     9.5   963.3    0.00 
 181    5:00   0.00   63.6    73    8.9   127    10.8   963.4    0.00 
 181    5:10   0.01   63.6    72    9.1   123    10.5   963.4    0.00 
 181    5:20   0.03   64.6    70    9.9   124    10.9   963.4    0.00 
 181    5:30   0.05   65.7    67    9.7   122    11.2   963.4    0.00 
 181    5:40   0.08   66.4    65    8.9   104    11.5   963.5    0.00 
 181    5:50   0.09   67.2    64    7.1   101     9.8   963.6    0.00 
 181    6:00   0.12   68.4    60    7.2   104     9.2   963.5    0.00 
 181    6:10   0.15   69.6    58    6.8   105     8.6   963.5    0.00 
 181    6:20   0.18   70.3    57    6.0   123     8.3   963.6    0.00 
 181    6:30   0.22   70.3    54    6.6   128     7.4   963.6    0.00 
 181    6:40   0.25   70.4    50    5.7   129     7.0   963.6    0.00 
 181    6:50   0.28   70.9    46    5.5   137     7.2   963.8    0.00 
 181    7:00   0.32   70.2    56    3.1   147     5.8   963.9    0.00 
 181    7:10   0.35   70.6    46    4.4   120     6.2   963.7    0.00 
 181    7:20   0.38   73.8    43    3.6   115     5.3   963.8    0.00 
 181    7:30   0.42   73.1    55    3.2   127     5.3   963.9    0.00 
 181    7:40   0.45   72.8    55    4.1   127     5.9   964.0    0.00 
 181    7:50   0.49   73.2    56    2.4    97     5.1   964.0    0.00 
 181    8:00   0.52   73.1    61    1.9   129     3.7   964.0    0.00 
 181    8:10   0.55   71.5    63    1.9   118     3.7   964.0    0.00 
 181    8:20   0.58   72.3    58    2.5   124     4.3   964.1    0.00 
 181    8:30   0.61   73.2    63    2.5   144     5.2   964.3    0.00 
 181    8:40   0.64   73.6    63    2.1   103     4.1   964.2    0.00 
 181    8:50   0.67   74.8    61    1.7   124     4.3   964.2    0.00 
 181    9:00   0.69   72.4    65    2.5   343     4.7   964.2    0.00 
 181    9:10   0.72   73.7    61    2.2    22     4.1   964.1    0.00 
 181    9:20   0.75   72.6    63    3.1    30     5.6   964.1    0.00 
 181    9:30   0.77   71.5    64    3.4    45     5.2   964.1    0.00 
 181    9:40   0.80   74.0    60    2.4    56     5.3   964.2    0.00 
 181    9:50   0.82   75.5    60    2.8    89     6.7   964.3    0.00 
 181   10:00   0.84   75.1    60    2.9    45     6.2   964.2    0.00 
 181   10:10   0.85   77.1    55    2.5    52     6.5   964.2    0.00 
 181   10:20   0.87   77.9    53    2.3    46     5.6   964.2    0.00 
 181   10:30   0.89   78.3    56    2.3   120     6.4   964.2    0.00 
 181   10:40   0.90   75.3    64    3.6   129     7.2   964.2    0.00 
 181   10:50   0.91   76.2    60    2.7    70     5.0   964.2    0.00 
 181   11:00   0.92   76.7    55    2.9    52     6.2   964.3    0.00 
 181   11:10   0.93   74.7    59    2.1     9     4.7   964.3    0.00 
 181   11:20   0.94   75.2    57    2.9    58     5.4   964.3    0.00 
 181   11:30   0.94   75.5    56    3.0    61     5.8   964.2    0.00 
 181   11:40   0.95   74.9    57    2.7    56     4.7   964.1    0.00 
 181   11:50   0.95   73.2    60    2.7    26     5.8   964.1    0.00 
 181   12:00   0.95   73.5    60    2.3   326     6.4   964.0    0.00 
 181   12:10   0.95   75.3    56    2.1    48     4.2   964.0    0.00 
 181   12:20   0.95   75.4    55    1.9    60     3.4   964.1    0.00 
 181   12:30   0.94   76.3    54    2.3    42     4.5   964.0    0.00 
 181   12:40   0.94   76.6    53    1.9    43     5.6   964.0    0.00 
 181   12:50   0.93   78.6    50    2.7    53     6.1   963.9    0.00 
 181   13:00   0.93   78.0    51    4.1    33     5.9   963.9    0.00 
 181   13:10   0.92   75.3    54    4.1    28     7.3   963.9    0.00 
 181   13:20   0.91   75.1    55    5.5    39     8.2   963.8    0.00 
 181   13:30   0.90   76.1    53    4.7    40     7.0   963.8    0.00 
 181   13:40   0.88   76.5    52    5.2    43     7.3   963.7    0.00 
 181   13:50   0.87   77.3    51    3.8    44     6.0   963.7    0.00 
 181   14:00   0.85   78.4    49    3.3    48     5.1   963.6    0.00 
 181   14:10   0.84   79.4    48    3.5    45     6.9   963.6    0.00 
 181   14:20   0.81   79.1    48    2.5    46     5.7   963.5    0.00 
 181   14:30   0.80   80.3    49    1.4   156     5.4   963.4    0.00 
 181   14:40   0.77   80.7    48    2.4   167     6.9   963.3    0.00 
 181   14:50   0.75   79.8    52    3.7   188     7.1   963.2    0.00 
 181   15:00   0.73   80.1    48    1.2   123     3.2   963.1    0.00 
 181   15:10   0.70   81.4    45    1.6    63     4.2   963.0    0.00 
 181   15:20   0.67   81.8    48    2.6   166     6.9   962.9    0.00 
 181   15:30   0.65   83.0    47    1.6   156     3.8   962.8    0.00 
 181   15:40   0.62   83.1    46    1.9   108     4.8   962.7    0.00 
 181   15:50   0.59   80.9    50    2.8   140     7.2   962.6    0.00 
 181   16:00   0.56   81.0    47    1.8    96     5.5   962.5    0.00 
 181   16:10   0.53   80.5    46    1.8    49     3.7   962.4    0.00 
 181   16:20   0.49   80.2    49    1.6    62     3.8   962.3    0.00 
 181   16:30   0.46   81.1    48    2.0   170     5.0   962.2    0.00 
 181   16:40   0.43   79.2    52    2.5   208     4.4   962.1    0.00 
 181   16:50   0.40   78.4    55    2.9   219     7.1   961.9    0.00 
 181   17:00   0.37   78.7    52    2.3   255     7.8   961.8    0.00 
 181   17:10   0.33   77.9    48    4.3   317     8.2   961.8    0.00 
 181   17:20   0.30   77.2    42    6.8   328    15.1   961.8    0.00 
 181   17:30   0.27   75.9    41    7.3   325    13.4   961.7    0.00 
 181   17:40   0.23   76.6    35    7.6   306    14.1   961.5    0.00 
 181   17:50   0.20   77.9    33    5.3   299     9.0   961.4    0.00 
 181   18:00   0.17   78.4    32    6.6   313    11.6   961.3    0.00 
 181   18:10   0.14   78.3    36    5.5   297    11.1   961.4    0.00 
 181   18:20   0.12   77.3    34    6.8   317    12.9   961.3    0.00 
 181   18:30   0.09   75.7    37    7.8   336    12.9   961.2    0.00 
 181   18:40   0.07   73.7    40    9.6   340    18.0   961.1    0.00 
 181   18:50   0.04   70.6    45    9.7     1    16.0   961.0    0.00 
 181   19:00   0.02   69.3    46    9.6   353    19.0   961.0    0.00 
 181   19:10   0.01   70.6    42   10.3   346    19.7   961.0    0.00 
 181   19:20   0.00   69.6    43    9.3   344    16.6   961.0    0.00 
 181   19:30   0.00   68.7    45    8.3   357    14.9   961.0    0.00 
 181   19:40   0.00   67.8    46    9.9   350    16.7   961.1    0.00 
 181   19:50   0.00   67.6    46   11.3     5    16.9   961.2    0.00 
 181   20:00   0.00   67.6    46   12.5     8    17.5   961.2    0.00 
 181   20:10   0.00   67.9    43   11.2   357    20.7   961.3    0.00 
 181   20:20   0.00   68.0    42   10.9   356    16.6   961.3    0.00 
 181   20:30   0.00   69.3    39   12.2   352    19.1   961.3    0.00 
 181   20:40   0.00   72.3    31   13.2   339    22.9   961.4    0.00 
 181   20:50   0.00   76.6    22   13.6   330    24.7   961.4    0.00 

Return to Valley Peak, Santa Cruz Island Reserve graphs page.


Western Regional Climate Center,wrcc@dri.edu